sensor_id;sensor_type;location;lat;lon;timestamp;temperature;humidity
326;DHT22;150;52.352;14.058;2023-04-25T00:02:10;10.70;32.10
326;DHT22;150;52.352;14.058;2023-04-25T00:04:40;10.70;32.40
326;DHT22;150;52.352;14.058;2023-04-25T00:07:09;10.80;32.50
326;DHT22;150;52.352;14.058;2023-04-25T00:09:37;10.80;32.20
326;DHT22;150;52.352;14.058;2023-04-25T00:12:06;10.70;32.00
326;DHT22;150;52.352;14.058;2023-04-25T00:14:33;10.70;32.00
326;DHT22;150;52.352;14.058;2023-04-25T00:17:01;10.70;32.40
326;DHT22;150;52.352;14.058;2023-04-25T00:19:28;10.70;31.60
326;DHT22;150;52.352;14.058;2023-04-25T00:21:56;10.70;32.10
326;DHT22;150;52.352;14.058;2023-04-25T00:24:24;10.60;32.30
326;DHT22;150;52.352;14.058;2023-04-25T00:26:50;10.60;32.50
326;DHT22;150;52.352;14.058;2023-04-25T00:29:17;10.50;32.60
326;DHT22;150;52.352;14.058;2023-04-25T00:31:44;10.40;32.80
326;DHT22;150;52.352;14.058;2023-04-25T00:34:12;10.40;32.80
326;DHT22;150;52.352;14.058;2023-04-25T00:36:58;10.40;32.80
326;DHT22;150;52.352;14.058;2023-04-25T00:39:33;10.40;33.20
326;DHT22;150;52.352;14.058;2023-04-25T00:42:15;10.20;33.30
326;DHT22;150;52.352;14.058;2023-04-25T00:44:45;10.10;33.80
326;DHT22;150;52.352;14.058;2023-04-25T00:47:13;10.10;34.00
326;DHT22;150;52.352;14.058;2023-04-25T00:49:41;10.10;33.90
326;DHT22;150;52.352;14.058;2023-04-25T00:52:12;10.10;34.10
326;DHT22;150;52.352;14.058;2023-04-25T00:54:39;10.10;33.40
326;DHT22;150;52.352;14.058;2023-04-25T00:57:13;10.10;33.30
326;DHT22;150;52.352;14.058;2023-04-25T00:59:51;10.10;33.10
326;DHT22;150;52.352;14.058;2023-04-25T01:02:22;10.10;33.10
326;DHT22;150;52.352;14.058;2023-04-25T01:04:51;10.00;33.30
326;DHT22;150;52.352;14.058;2023-04-25T01:07:21;10.10;33.10
326;DHT22;150;52.352;14.058;2023-04-25T01:09:51;10.10;33.40
326;DHT22;150;52.352;14.058;2023-04-25T01:12:21;10.10;32.60
326;DHT22;150;52.352;14.058;2023-04-25T01:14:49;10.10;32.60
326;DHT22;150;52.352;14.058;2023-04-25T01:17:23;10.10;32.40
326;DHT22;150;52.352;14.058;2023-04-25T01:19:52;10.20;32.50
326;DHT22;150;52.352;14.058;2023-04-25T01:22:21;10.10;31.90
326;DHT22;150;52.352;14.058;2023-04-25T01:25:03;10.10;31.70
326;DHT22;150;52.352;14.058;2023-04-25T01:27:40;10.10;32.30
326;DHT22;150;52.352;14.058;2023-04-25T01:30:21;10.10;31.70
326;DHT22;150;52.352;14.058;2023-04-25T01:33:08;10.00;31.50
326;DHT22;150;52.352;14.058;2023-04-25T01:35:35;9.90;32.70
326;DHT22;150;52.352;14.058;2023-04-25T01:38:16;10.00;32.10
326;DHT22;150;52.352;14.058;2023-04-25T01:40:56;9.90;33.30
326;DHT22;150;52.352;14.058;2023-04-25T01:43:30;10.00;32.40
326;DHT22;150;52.352;14.058;2023-04-25T01:46:13;10.00;32.50
326;DHT22;150;52.352;14.058;2023-04-25T01:49:00;9.90;33.30
326;DHT22;150;52.352;14.058;2023-04-25T01:51:41;10.00;32.40
326;DHT22;150;52.352;14.058;2023-04-25T01:54:14;10.10;32.50
326;DHT22;150;52.352;14.058;2023-04-25T01:59:57;10.20;32.60
326;DHT22;150;52.352;14.058;2023-04-25T02:02:33;10.30;32.20
326;DHT22;150;52.352;14.058;2023-04-25T02:05:05;10.30;32.40
326;DHT22;150;52.352;14.058;2023-04-25T02:07:51;10.40;32.10
326;DHT22;150;52.352;14.058;2023-04-25T02:10:26;10.40;32.60
326;DHT22;150;52.352;14.058;2023-04-25T02:12:58;10.50;31.40
326;DHT22;150;52.352;14.058;2023-04-25T02:15:35;10.50;31.30
326;DHT22;150;52.352;14.058;2023-04-25T02:18:09;10.50;31.40
326;DHT22;150;52.352;14.058;2023-04-25T02:20:48;10.60;31.20
326;DHT22;150;52.352;14.058;2023-04-25T02:23:15;10.60;30.80
326;DHT22;150;52.352;14.058;2023-04-25T02:25:46;10.50;31.60
326;DHT22;150;52.352;14.058;2023-04-25T02:28:12;10.60;31.10
326;DHT22;150;52.352;14.058;2023-04-25T02:30:51;10.70;31.10
326;DHT22;150;52.352;14.058;2023-04-25T02:33:34;10.60;30.60
326;DHT22;150;52.352;14.058;2023-04-25T02:36:23;10.50;31.20
326;DHT22;150;52.352;14.058;2023-04-25T02:39:02;10.50;31.10
326;DHT22;150;52.352;14.058;2023-04-25T02:41:41;10.50;31.60
326;DHT22;150;52.352;14.058;2023-04-25T02:44:40;10.50;31.60
326;DHT22;150;52.352;14.058;2023-04-25T02:55:31;10.60;31.10
326;DHT22;150;52.352;14.058;2023-04-25T02:58:04;10.60;30.80
326;DHT22;150;52.352;14.058;2023-04-25T03:00:42;10.60;30.60
326;DHT22;150;52.352;14.058;2023-04-25T03:03:12;10.60;30.70
326;DHT22;150;52.352;14.058;2023-04-25T03:08:41;10.50;30.60
326;DHT22;150;52.352;14.058;2023-04-25T03:11:17;10.60;30.40
326;DHT22;150;52.352;14.058;2023-04-25T03:13:49;10.60;30.20
326;DHT22;150;52.352;14.058;2023-04-25T03:16:27;10.70;30.10
326;DHT22;150;52.352;14.058;2023-04-25T03:19:21;10.70;29.90
326;DHT22;150;52.352;14.058;2023-04-25T03:22:30;10.80;29.90
326;DHT22;150;52.352;14.058;2023-04-25T03:26:00;10.90;29.70
326;DHT22;150;52.352;14.058;2023-04-25T03:28:56;10.90;29.30
326;DHT22;150;52.352;14.058;2023-04-25T03:31:34;10.90;29.20
326;DHT22;150;52.352;14.058;2023-04-25T03:34:45;10.90;29.40
326;DHT22;150;52.352;14.058;2023-04-25T03:37:37;10.80;29.30
326;DHT22;150;52.352;14.058;2023-04-25T03:40:44;10.80;29.40
326;DHT22;150;52.352;14.058;2023-04-25T03:54:14;10.70;29.80
326;DHT22;150;52.352;14.058;2023-04-25T03:57:51;10.70;29.80
326;DHT22;150;52.352;14.058;2023-04-25T04:04:44;10.70;29.60
326;DHT22;150;52.352;14.058;2023-04-25T04:12:07;10.80;29.70
326;DHT22;150;52.352;14.058;2023-04-25T04:14:47;10.80;29.80
326;DHT22;150;52.352;14.058;2023-04-25T05:28:29;11.50;28.50
326;DHT22;150;52.352;14.058;2023-04-25T05:30:56;11.60;28.30
326;DHT22;150;52.352;14.058;2023-04-25T05:33:27;11.70;28.40
326;DHT22;150;52.352;14.058;2023-04-25T05:36:01;11.80;27.60
326;DHT22;150;52.352;14.058;2023-04-25T05:38:59;12.00;27.60
326;DHT22;150;52.352;14.058;2023-04-25T05:41:37;12.00;27.20
326;DHT22;150;52.352;14.058;2023-04-25T05:58:36;12.20;26.60
326;DHT22;150;52.352;14.058;2023-04-25T06:01:29;12.20;26.90
326;DHT22;150;52.352;14.058;2023-04-25T06:04:00;12.20;27.10
326;DHT22;150;52.352;14.058;2023-04-25T06:06:31;12.30;27.00
326;DHT22;150;52.352;14.058;2023-04-25T06:08:58;12.40;27.10
326;DHT22;150;52.352;14.058;2023-04-25T06:12:24;12.50;27.00
326;DHT22;150;52.352;14.058;2023-04-25T06:15:27;12.80;26.50
326;DHT22;150;52.352;14.058;2023-04-25T06:18:00;13.10;25.90
326;DHT22;150;52.352;14.058;2023-04-25T06:21:02;13.20;25.30
326;DHT22;150;52.352;14.058;2023-04-25T06:23:42;13.30;25.20
326;DHT22;150;52.352;14.058;2023-04-25T06:26:34;13.30;25.10
326;DHT22;150;52.352;14.058;2023-04-25T06:30:12;13.40;24.80
326;DHT22;150;52.352;14.058;2023-04-25T06:33:00;13.50;24.60
326;DHT22;150;52.352;14.058;2023-04-25T06:35:51;13.40;24.90
326;DHT22;150;52.352;14.058;2023-04-25T06:38:32;13.60;24.80
326;DHT22;150;52.352;14.058;2023-04-25T06:41:33;13.70;23.90
326;DHT22;150;52.352;14.058;2023-04-25T06:47:36;13.80;23.80
326;DHT22;150;52.352;14.058;2023-04-25T06:50:10;13.90;24.10
326;DHT22;150;52.352;14.058;2023-04-25T06:52:38;13.80;24.30
326;DHT22;150;52.352;14.058;2023-04-25T06:55:09;13.60;24.30
326;DHT22;150;52.352;14.058;2023-04-25T06:57:38;13.70;24.50
326;DHT22;150;52.352;14.058;2023-04-25T07:00:24;13.70;24.40
326;DHT22;150;52.352;14.058;2023-04-25T07:02:54;13.70;24.20
326;DHT22;150;52.352;14.058;2023-04-25T07:05:21;13.70;23.90
326;DHT22;150;52.352;14.058;2023-04-25T07:08:01;13.70;24.10
326;DHT22;150;52.352;14.058;2023-04-25T07:10:33;13.70;24.60
326;DHT22;150;52.352;14.058;2023-04-25T07:13:10;13.80;24.00
326;DHT22;150;52.352;14.058;2023-04-25T07:15:39;13.70;23.90
326;DHT22;150;52.352;14.058;2023-04-25T07:18:07;13.70;24.20
326;DHT22;150;52.352;14.058;2023-04-25T07:20:39;13.70;24.50
326;DHT22;150;52.352;14.058;2023-04-25T07:23:20;13.80;24.60
326;DHT22;150;52.352;14.058;2023-04-25T07:26:10;13.90;24.30
326;DHT22;150;52.352;14.058;2023-04-25T07:32:00;13.90;24.20
326;DHT22;150;52.352;14.058;2023-04-25T07:34:30;13.80;24.30
326;DHT22;150;52.352;14.058;2023-04-25T07:37:05;13.90;24.60
326;DHT22;150;52.352;14.058;2023-04-25T07:39:44;13.70;24.60
326;DHT22;150;52.352;14.058;2023-04-25T07:42:24;13.80;25.10
326;DHT22;150;52.352;14.058;2023-04-25T07:45:14;13.90;24.70
326;DHT22;150;52.352;14.058;2023-04-25T07:48:13;14.10;24.50
326;DHT22;150;52.352;14.058;2023-04-25T07:51:05;14.10;23.90
326;DHT22;150;52.352;14.058;2023-04-25T07:53:32;13.80;24.30
326;DHT22;150;52.352;14.058;2023-04-25T07:56:01;13.80;24.30
326;DHT22;150;52.352;14.058;2023-04-25T07:58:27;13.80;24.60
326;DHT22;150;52.352;14.058;2023-04-25T08:00:54;13.70;24.60
326;DHT22;150;52.352;14.058;2023-04-25T08:03:22;13.70;24.80
326;DHT22;150;52.352;14.058;2023-04-25T08:05:49;13.70;24.60
326;DHT22;150;52.352;14.058;2023-04-25T08:08:15;13.60;24.60
326;DHT22;150;52.352;14.058;2023-04-25T08:10:42;13.40;24.10
326;DHT22;150;52.352;14.058;2023-04-25T08:13:09;13.30;24.90
326;DHT22;150;52.352;14.058;2023-04-25T08:15:35;13.40;25.30
326;DHT22;150;52.352;14.058;2023-04-25T08:18:02;13.40;25.30
326;DHT22;150;52.352;14.058;2023-04-25T08:20:30;13.40;24.70
326;DHT22;150;52.352;14.058;2023-04-25T08:22:57;13.50;24.80
326;DHT22;150;52.352;14.058;2023-04-25T08:25:23;13.50;25.00
326;DHT22;150;52.352;14.058;2023-04-25T08:27:50;13.40;24.20
326;DHT22;150;52.352;14.058;2023-04-25T08:30:17;13.50;25.10
326;DHT22;150;52.352;14.058;2023-04-25T08:32:44;13.60;24.60
326;DHT22;150;52.352;14.058;2023-04-25T08:35:11;13.50;25.00
326;DHT22;150;52.352;14.058;2023-04-25T08:37:38;13.50;25.10
326;DHT22;150;52.352;14.058;2023-04-25T08:40:06;13.40;24.90
326;DHT22;150;52.352;14.058;2023-04-25T08:42:39;13.20;26.20
326;DHT22;150;52.352;14.058;2023-04-25T08:45:08;13.00;26.20
326;DHT22;150;52.352;14.058;2023-04-25T08:47:38;13.00;26.10
326;DHT22;150;52.352;14.058;2023-04-25T08:50:06;13.00;26.30
326;DHT22;150;52.352;14.058;2023-04-25T08:52:41;12.90;26.20
326;DHT22;150;52.352;14.058;2023-04-25T08:55:12;12.70;26.50
326;DHT22;150;52.352;14.058;2023-04-25T08:57:40;12.70;27.30
326;DHT22;150;52.352;14.058;2023-04-25T09:00:12;12.70;27.60
326;DHT22;150;52.352;14.058;2023-04-25T09:03:11;12.50;28.40
326;DHT22;150;52.352;14.058;2023-04-25T09:05:49;12.30;30.20
326;DHT22;150;52.352;14.058;2023-04-25T09:08:18;12.30;31.50
326;DHT22;150;52.352;14.058;2023-04-25T09:10:54;12.40;32.30
326;DHT22;150;52.352;14.058;2023-04-25T09:13:28;12.50;31.20
326;DHT22;150;52.352;14.058;2023-04-25T09:16:05;12.50;30.80
326;DHT22;150;52.352;14.058;2023-04-25T09:18:34;12.60;31.50
326;DHT22;150;52.352;14.058;2023-04-25T09:21:21;12.80;32.40
326;DHT22;150;52.352;14.058;2023-04-25T09:23:52;13.00;30.80
326;DHT22;150;52.352;14.058;2023-04-25T09:26:20;13.30;30.60
326;DHT22;150;52.352;14.058;2023-04-25T09:29:05;13.50;29.80
326;DHT22;150;52.352;14.058;2023-04-25T09:31:44;13.60;29.20
326;DHT22;150;52.352;14.058;2023-04-25T09:34:14;13.40;28.60
326;DHT22;150;52.352;14.058;2023-04-25T09:36:48;13.40;29.10
326;DHT22;150;52.352;14.058;2023-04-25T09:39:40;13.20;29.60
326;DHT22;150;52.352;14.058;2023-04-25T09:42:34;13.30;29.70
326;DHT22;150;52.352;14.058;2023-04-25T09:45:12;13.30;29.70
326;DHT22;150;52.352;14.058;2023-04-25T09:48:15;13.30;28.90
326;DHT22;150;52.352;14.058;2023-04-25T09:51:22;13.40;29.50
326;DHT22;150;52.352;14.058;2023-04-25T09:54:00;13.70;29.10
326;DHT22;150;52.352;14.058;2023-04-25T09:56:38;13.90;27.60
326;DHT22;150;52.352;14.058;2023-04-25T09:59:13;14.20;27.30
326;DHT22;150;52.352;14.058;2023-04-25T10:01:42;14.60;27.20
326;DHT22;150;52.352;14.058;2023-04-25T10:04:10;14.70;23.60
326;DHT22;150;52.352;14.058;2023-04-25T10:06:45;14.60;22.50
326;DHT22;150;52.352;14.058;2023-04-25T10:09:13;14.60;22.20
326;DHT22;150;52.352;14.058;2023-04-25T10:11:43;14.70;22.20
326;DHT22;150;52.352;14.058;2023-04-25T10:14:11;14.70;20.40
326;DHT22;150;52.352;14.058;2023-04-25T10:16:39;14.80;19.50
326;DHT22;150;52.352;14.058;2023-04-25T10:19:07;14.90;18.10
326;DHT22;150;52.352;14.058;2023-04-25T10:21:34;14.90;17.10
326;DHT22;150;52.352;14.058;2023-04-25T10:24:02;15.10;16.30
326;DHT22;150;52.352;14.058;2023-04-25T10:26:29;15.20;15.40
326;DHT22;150;52.352;14.058;2023-04-25T10:28:58;15.40;16.00
326;DHT22;150;52.352;14.058;2023-04-25T10:31:30;15.40;13.90
326;DHT22;150;52.352;14.058;2023-04-25T10:33:57;15.60;14.10
326;DHT22;150;52.352;14.058;2023-04-25T10:36:24;15.50;13.70
326;DHT22;150;52.352;14.058;2023-04-25T10:38:52;15.70;14.00
326;DHT22;150;52.352;14.058;2023-04-25T10:41:20;15.80;13.60
326;DHT22;150;52.352;14.058;2023-04-25T10:43:49;16.00;13.50
326;DHT22;150;52.352;14.058;2023-04-25T10:46:21;15.80;13.00
326;DHT22;150;52.352;14.058;2023-04-25T10:48:59;16.00;12.90
326;DHT22;150;52.352;14.058;2023-04-25T10:51:29;16.20;13.30
326;DHT22;150;52.352;14.058;2023-04-25T10:54:00;16.30;13.10
326;DHT22;150;52.352;14.058;2023-04-25T10:56:28;16.30;12.00
326;DHT22;150;52.352;14.058;2023-04-25T10:59:14;16.10;11.70
326;DHT22;150;52.352;14.058;2023-04-25T11:01:44;15.90;11.40
326;DHT22;150;52.352;14.058;2023-04-25T11:04:22;15.90;11.80
326;DHT22;150;52.352;14.058;2023-04-25T11:07:28;16.00;11.80
326;DHT22;150;52.352;14.058;2023-04-25T11:10:16;15.60;11.10
326;DHT22;150;52.352;14.058;2023-04-25T11:12:48;15.70;12.80
326;DHT22;150;52.352;14.058;2023-04-25T11:15:17;15.60;12.20
326;DHT22;150;52.352;14.058;2023-04-25T11:18:05;15.50;12.70
326;DHT22;150;52.352;14.058;2023-04-25T11:20:32;15.30;12.00
326;DHT22;150;52.352;14.058;2023-04-25T11:22:59;15.20;12.50
326;DHT22;150;52.352;14.058;2023-04-25T11:25:28;15.10;12.90
326;DHT22;150;52.352;14.058;2023-04-25T11:27:57;15.10;12.50
326;DHT22;150;52.352;14.058;2023-04-25T11:30:25;14.90;12.70
326;DHT22;150;52.352;14.058;2023-04-25T11:32:52;14.70;12.50
326;DHT22;150;52.352;14.058;2023-04-25T11:35:19;14.70;12.70
326;DHT22;150;52.352;14.058;2023-04-25T11:37:48;14.60;13.10
326;DHT22;150;52.352;14.058;2023-04-25T11:40:15;14.80;13.50
326;DHT22;150;52.352;14.058;2023-04-25T11:42:45;14.90;13.90
326;DHT22;150;52.352;14.058;2023-04-25T11:45:16;14.90;11.60
326;DHT22;150;52.352;14.058;2023-04-25T11:47:44;14.70;11.90
326;DHT22;150;52.352;14.058;2023-04-25T11:50:11;15.00;11.50
326;DHT22;150;52.352;14.058;2023-04-25T11:52:42;15.10;12.00
326;DHT22;150;52.352;14.058;2023-04-25T11:55:13;15.30;10.90
326;DHT22;150;52.352;14.058;2023-04-25T11:57:41;15.50;10.90
326;DHT22;150;52.352;14.058;2023-04-25T12:00:12;15.80;10.90
326;DHT22;150;52.352;14.058;2023-04-25T12:02:51;15.80;11.80
326;DHT22;150;52.352;14.058;2023-04-25T12:05:26;15.90;9.70
326;DHT22;150;52.352;14.058;2023-04-25T12:07:55;15.90;9.80
326;DHT22;150;52.352;14.058;2023-04-25T12:10:46;15.90;10.30
326;DHT22;150;52.352;14.058;2023-04-25T12:13:21;15.90;9.80
326;DHT22;150;52.352;14.058;2023-04-25T12:15:49;15.80;9.60
326;DHT22;150;52.352;14.058;2023-04-25T12:18:28;15.70;9.90
326;DHT22;150;52.352;14.058;2023-04-25T12:20:58;15.60;10.70
326;DHT22;150;52.352;14.058;2023-04-25T12:23:33;15.50;10.00
326;DHT22;150;52.352;14.058;2023-04-25T12:26:35;15.20;10.30
326;DHT22;150;52.352;14.058;2023-04-25T12:28:58;15.10;10.30
326;DHT22;150;52.352;14.058;2023-04-25T12:31:30;15.10;10.50
326;DHT22;150;52.352;14.058;2023-04-25T12:34:21;15.10;10.80
326;DHT22;150;52.352;14.058;2023-04-25T12:37:00;14.90;10.80
326;DHT22;150;52.352;14.058;2023-04-25T12:39:26;14.70;11.50
326;DHT22;150;52.352;14.058;2023-04-25T12:42:01;14.60;10.50
326;DHT22;150;52.352;14.058;2023-04-25T12:44:34;14.50;10.70
326;DHT22;150;52.352;14.058;2023-04-25T12:47:05;14.20;11.40
326;DHT22;150;52.352;14.058;2023-04-25T12:49:35;14.00;11.40
326;DHT22;150;52.352;14.058;2023-04-25T12:52:10;13.70;12.10
326;DHT22;150;52.352;14.058;2023-04-25T12:54:37;13.70;12.40
326;DHT22;150;52.352;14.058;2023-04-25T12:57:12;13.80;12.00
326;DHT22;150;52.352;14.058;2023-04-25T12:59:42;13.90;11.10
326;DHT22;150;52.352;14.058;2023-04-25T13:02:10;14.10;11.30
326;DHT22;150;52.352;14.058;2023-04-25T13:04:37;14.30;10.90
326;DHT22;150;52.352;14.058;2023-04-25T13:07:12;14.60;8.90
326;DHT22;150;52.352;14.058;2023-04-25T13:09:39;14.80;9.70
326;DHT22;150;52.352;14.058;2023-04-25T13:12:06;14.90;8.80
326;DHT22;150;52.352;14.058;2023-04-25T13:14:33;14.70;8.60
326;DHT22;150;52.352;14.058;2023-04-25T13:16:59;14.70;8.10
326;DHT22;150;52.352;14.058;2023-04-25T13:19:30;14.50;8.80
326;DHT22;150;52.352;14.058;2023-04-25T13:21:56;14.40;8.70
326;DHT22;150;52.352;14.058;2023-04-25T13:24:24;14.60;8.80
326;DHT22;150;52.352;14.058;2023-04-25T13:26:51;14.80;8.70
326;DHT22;150;52.352;14.058;2023-04-25T13:29:17;15.00;9.10
326;DHT22;150;52.352;14.058;2023-04-25T13:31:44;15.10;8.80
326;DHT22;150;52.352;14.058;2023-04-25T13:34:11;15.00;8.60
326;DHT22;150;52.352;14.058;2023-04-25T13:36:39;15.20;8.60
326;DHT22;150;52.352;14.058;2023-04-25T13:39:06;15.10;8.20
326;DHT22;150;52.352;14.058;2023-04-25T13:41:33;14.80;8.20
326;DHT22;150;52.352;14.058;2023-04-25T13:43:59;14.70;8.90
326;DHT22;150;52.352;14.058;2023-04-25T13:46:26;14.60;8.80
326;DHT22;150;52.352;14.058;2023-04-25T13:48:53;14.60;8.80
326;DHT22;150;52.352;14.058;2023-04-25T13:51:23;14.80;9.70
326;DHT22;150;52.352;14.058;2023-04-25T13:54:08;14.90;7.40
326;DHT22;150;52.352;14.058;2023-04-25T13:56:44;14.90;7.80
326;DHT22;150;52.352;14.058;2023-04-25T13:59:59;14.90;7.80
326;DHT22;150;52.352;14.058;2023-04-25T14:03:27;15.00;8.30
326;DHT22;150;52.352;14.058;2023-04-25T14:06:44;15.00;7.30
326;DHT22;150;52.352;14.058;2023-04-25T14:09:37;14.80;7.20
326;DHT22;150;52.352;14.058;2023-04-25T14:12:15;14.40;7.00
326;DHT22;150;52.352;14.058;2023-04-25T14:15:12;14.40;8.10
326;DHT22;150;52.352;14.058;2023-04-25T14:17:59;14.40;7.20
326;DHT22;150;52.352;14.058;2023-04-25T14:20:35;14.50;7.90
326;DHT22;150;52.352;14.058;2023-04-25T18:17:57;11.90;15.00
326;DHT22;150;52.352;14.058;2023-04-25T18:20:47;11.80;15.50
326;DHT22;150;52.352;14.058;2023-04-25T18:24:01;11.60;15.50
326;DHT22;150;52.352;14.058;2023-04-25T18:26:51;11.60;15.80
326;DHT22;150;52.352;14.058;2023-04-25T18:29:58;11.30;15.70
326;DHT22;150;52.352;14.058;2023-04-25T18:36:11;11.10;16.70
326;DHT22;150;52.352;14.058;2023-04-25T18:38:38;11.00;16.70
326;DHT22;150;52.352;14.058;2023-04-25T18:42:01;10.90;16.70
326;DHT22;150;52.352;14.058;2023-04-25T18:47:41;10.90;17.00
326;DHT22;150;52.352;14.058;2023-04-25T18:50:32;10.90;17.30
326;DHT22;150;52.352;14.058;2023-04-25T18:53:23;10.80;17.10
326;DHT22;150;52.352;14.058;2023-04-25T18:56:28;10.80;17.50
326;DHT22;150;52.352;14.058;2023-04-25T19:00:04;10.70;17.60
326;DHT22;150;52.352;14.058;2023-04-25T19:06:19;10.60;18.00
326;DHT22;150;52.352;14.058;2023-04-25T19:12:11;10.60;18.20
326;DHT22;150;52.352;14.058;2023-04-25T19:15:28;10.60;18.30
326;DHT22;150;52.352;14.058;2023-04-25T19:21:39;10.60;18.50
326;DHT22;150;52.352;14.058;2023-04-25T19:24:39;10.50;18.50
326;DHT22;150;52.352;14.058;2023-04-25T19:27:31;10.40;18.50
326;DHT22;150;52.352;14.058;2023-04-25T19:33:21;10.30;19.30
326;DHT22;150;52.352;14.058;2023-04-25T19:36:05;10.30;18.70
326;DHT22;150;52.352;14.058;2023-04-25T19:39:15;10.40;18.40
326;DHT22;150;52.352;14.058;2023-04-25T19:42:15;10.40;18.70
326;DHT22;150;52.352;14.058;2023-04-25T19:45:22;10.40;18.80
326;DHT22;150;52.352;14.058;2023-04-25T19:48:17;10.40;19.00
326;DHT22;150;52.352;14.058;2023-04-25T19:50:49;10.50;19.20
326;DHT22;150;52.352;14.058;2023-04-25T19:53:44;10.50;19.20
326;DHT22;150;52.352;14.058;2023-04-25T19:56:39;10.50;19.50
326;DHT22;150;52.352;14.058;2023-04-25T20:02:37;10.50;19.20
326;DHT22;150;52.352;14.058;2023-04-25T20:05:10;10.40;19.50
326;DHT22;150;52.352;14.058;2023-04-25T20:14:08;10.50;19.50
326;DHT22;150;52.352;14.058;2023-04-25T20:16:53;10.50;19.40
326;DHT22;150;52.352;14.058;2023-04-25T20:19:35;10.50;19.50
326;DHT22;150;52.352;14.058;2023-04-25T20:22:41;10.50;19.50
326;DHT22;150;52.352;14.058;2023-04-25T20:25:39;10.50;19.90
326;DHT22;150;52.352;14.058;2023-04-25T20:28:43;10.40;20.10
326;DHT22;150;52.352;14.058;2023-04-25T20:31:30;10.30;20.60
326;DHT22;150;52.352;14.058;2023-04-25T20:38:35;10.20;21.00
326;DHT22;150;52.352;14.058;2023-04-25T20:41:49;10.10;21.20
326;DHT22;150;52.352;14.058;2023-04-25T20:44:35;10.00;21.40
326;DHT22;150;52.352;14.058;2023-04-25T21:43:59;9.00;24.80
326;DHT22;150;52.352;14.058;2023-04-25T21:46:56;9.00;25.00
326;DHT22;150;52.352;14.058;2023-04-25T21:56:00;8.90;24.80
326;DHT22;150;52.352;14.058;2023-04-25T22:02:58;8.80;24.70
326;DHT22;150;52.352;14.058;2023-04-25T22:05:50;8.70;24.90
326;DHT22;150;52.352;14.058;2023-04-25T22:09:03;8.70;24.80
326;DHT22;150;52.352;14.058;2023-04-25T22:11:32;8.70;25.00
326;DHT22;150;52.352;14.058;2023-04-25T22:14:07;8.60;25.00
326;DHT22;150;52.352;14.058;2023-04-25T22:17:18;8.50;24.80
326;DHT22;150;52.352;14.058;2023-04-25T22:20:13;8.30;24.70
326;DHT22;150;52.352;14.058;2023-04-25T22:22:51;8.30;24.70
326;DHT22;150;52.352;14.058;2023-04-25T22:26:08;8.30;24.70
326;DHT22;150;52.352;14.058;2023-04-25T22:29:22;8.20;24.60
326;DHT22;150;52.352;14.058;2023-04-25T22:32:44;8.20;24.70
326;DHT22;150;52.352;14.058;2023-04-25T22:36:15;8.30;24.60
326;DHT22;150;52.352;14.058;2023-04-25T22:46:16;8.20;25.00
326;DHT22;150;52.352;14.058;2023-04-25T22:48:59;8.20;25.10
326;DHT22;150;52.352;14.058;2023-04-25T22:51:52;8.20;25.20
326;DHT22;150;52.352;14.058;2023-04-25T22:58:18;8.20;25.40
326;DHT22;150;52.352;14.058;2023-04-25T23:01:15;8.10;25.50
326;DHT22;150;52.352;14.058;2023-04-25T23:07:55;8.00;25.40
326;DHT22;150;52.352;14.058;2023-04-25T23:13:14;8.00;25.60
326;DHT22;150;52.352;14.058;2023-04-25T23:16:07;8.00;25.70
326;DHT22;150;52.352;14.058;2023-04-25T23:22:23;7.90;25.60
326;DHT22;150;52.352;14.058;2023-04-25T23:25:29;7.90;25.60
326;DHT22;150;52.352;14.058;2023-04-25T23:28:07;7.90;25.40
326;DHT22;150;52.352;14.058;2023-04-25T23:31:02;7.90;25.40
326;DHT22;150;52.352;14.058;2023-04-25T23:33:35;7.80;25.30
326;DHT22;150;52.352;14.058;2023-04-25T23:36:05;7.80;25.60
326;DHT22;150;52.352;14.058;2023-04-25T23:42:20;7.80;25.70
326;DHT22;150;52.352;14.058;2023-04-25T23:49:52;7.70;25.50
326;DHT22;150;52.352;14.058;2023-04-25T23:52:13;7.70;25.60
326;DHT22;150;52.352;14.058;2023-04-25T23:54:41;7.60;25.80
326;DHT22;150;52.352;14.058;2023-04-25T23:57:10;7.60;25.80
326;DHT22;150;52.352;14.058;2023-04-25T23:59:52;7.60;25.90
